Terminal Aerodrome Forecast
Issued by NWS

Home | Current Version | Previous Version | Text Only | Print | Product List | Glossary On
Versions: 1 2 3 4 5 6 7 8 9 10 11 12 13
000
FTAK31 PANC 272320
TAFAIL
TAF
PAIL 272320Z 2800/2824 VRB06KT P6SM -SHRA BKN050
     FM280600 VRB03KT P6SM VCSH BKN040 OVC080
     FM282100 22007KT P6SM OVC050=

USA.gov is the U.S. government's official web portal to all federal, state and local government web resources and services.